メインページ
METAR-TAF:

METAR-TAF

空港 :

ラアス・アル=ハイマ国際空港

ラアス・アル=ハイマ, アラブ首長国連邦

緯度: 25-37N, 経度: 055-56E, 海抜: 31m

現時点の気象観測

当レポートは1時間7分前の03:00(UTC)に作成
の風 20kt
気温 25°C
湿度 61%
気圧 1012 hPa
視程10km以上
1,500メートル以下は雲なし、積乱雲なし

METAR: OMRK 250300Z 10020KT CAVOK 25/17 Q1011 A2987

時間: 08:07 (04:07 UTC)

予報

当レポートは5時間4分前の23:03(UTC)に作成
予報は25日の 00時(UTC)から 26日の 06時(UTC)まで有効
の風 15kt
視程: 6000m
確率 30%
25日の 00時(UTC)から 25日の 04時(UTC)まで
の風 25kt、最大35ktの突風を伴う
視程: 1500m
風塵
確率 30% :
25日の 04時(UTC)から 25日の 09時(UTC)まで一時的に
南/南東の風 15kt、最大25ktの突風を伴う
視程: 4000m
風塵
25日の 09時(UTC)から 25日の 11時(UTC)まで徐々に
北/北東の風 12kt
25日の 14時(UTC)から 25日の 16時(UTC)まで徐々に
の風 9kt

TAF: OMRK 242303Z 2500/2606 10015KT 6000 NSC PROB30 2500/2504 10025G35KT 1500 BLDU PROB30 TEMPO 2504/2509 16015G25KT 4000 BLDU BECMG 2509/2511 02012KT BECMG 2514/2516 09009KT

4,000以上の空港の気象観測と天気予報(METAR報とTAF報)

利用可能な観測所は地図上に黄色い丸と赤い丸で示す。

丸の上にカーソルを重ねると観測所名を参照できる。

次にクリックすると気象観測と天気予報を参照できる。

マップの切り替え:黒色「×」印の緑ボタンをクリックして拡大、「-」印の緑ボタンをクリックして縮小、緑色の三角印をクリックして隣りの地図に切り替え


METAR-TAF: